createdAt,value
2023-02-21T00:00:39.735Z,3.50
2023-02-21T00:03:42.467Z,3.90
2023-02-21T00:06:30.036Z,4.30
2023-02-21T00:09:17.683Z,2.90
2023-02-21T00:12:05.434Z,3.70
2023-02-21T00:14:53.435Z,3.50
2023-02-21T00:17:41.422Z,3.00
2023-02-21T00:20:29.221Z,3.80
2023-02-21T00:23:17.123Z,4.10
2023-02-21T00:26:04.738Z,4.90
2023-02-21T00:28:52.558Z,3.70
2023-02-21T00:31:40.122Z,2.60
2023-02-21T00:34:28.282Z,3.30
2023-02-21T00:37:15.952Z,3.70
2023-02-21T00:40:03.573Z,4.50
2023-02-21T00:42:51.447Z,6.40
2023-02-21T00:45:39.201Z,6.60
2023-02-21T00:48:26.793Z,5.50
2023-02-21T00:51:14.610Z,4.20
2023-02-21T00:54:02.321Z,3.30
2023-02-21T00:56:50.068Z,4.40
2023-02-21T00:59:37.745Z,4.10
2023-02-21T01:02:26.307Z,5.40
2023-02-21T01:05:13.711Z,3.40
2023-02-21T01:08:01.611Z,6.10
2023-02-21T01:10:49.120Z,5.00
2023-02-21T01:13:37.110Z,5.60
2023-02-21T01:16:26.298Z,1.70
2023-02-21T01:19:14.526Z,2.30
2023-02-21T01:22:02.356Z,3.40
2023-02-21T01:24:50.215Z,2.30
2023-02-21T01:27:37.804Z,4.10
2023-02-21T01:30:25.677Z,3.30
2023-02-21T01:33:13.160Z,2.50
2023-02-21T01:36:02.450Z,2.00
2023-02-21T01:38:55.436Z,2.30
2023-02-21T01:41:43.305Z,2.30
2023-02-21T01:44:52.552Z,2.30
2023-02-21T01:47:40.470Z,2.70
2023-02-21T01:50:37.506Z,2.50
2023-02-21T01:53:48.632Z,1.50
2023-02-21T01:56:35.944Z,2.40
2023-02-21T01:59:23.762Z,4.60
2023-02-21T02:02:29.371Z,3.40
2023-02-21T02:05:19.163Z,3.90
2023-02-21T02:08:07.267Z,2.50
2023-02-21T02:10:54.935Z,3.80
2023-02-21T02:13:34.125Z,1.60
2023-02-21T02:16:13.999Z,3.90
2023-02-21T02:18:57.121Z,2.70
2023-02-21T02:22:03.887Z,1.30
2023-02-21T02:25:06.418Z,3.20
2023-02-21T02:27:48.341Z,2.50
2023-02-21T02:30:42.389Z,2.60
2023-02-21T02:33:33.025Z,2.10
2023-02-21T02:36:13.773Z,1.40
2023-02-21T02:39:04.148Z,1.40
2023-02-21T02:42:06.846Z,0.80
2023-02-21T02:44:49.293Z,3.50
2023-02-21T02:47:25.898Z,2.90
2023-02-21T02:49:56.128Z,0.40
2023-02-21T02:52:25.424Z,1.60
2023-02-21T02:55:03.127Z,1.20
2023-02-21T02:57:41.458Z,0.70
2023-02-21T03:00:11.358Z,1.70
2023-02-21T03:05:36.652Z,1.20
2023-02-21T03:08:46.443Z,1.40
2023-02-21T03:11:21.057Z,1.50
2023-02-21T03:14:00.803Z,0.70
2023-02-21T03:16:37.195Z,1.00
2023-02-21T03:19:20.867Z,1.00
2023-02-21T03:21:54.321Z,1.00
2023-02-21T03:24:25.701Z,2.40
2023-02-21T03:27:00.188Z,3.20
2023-02-21T03:29:48.862Z,3.10
2023-02-21T03:32:31.734Z,1.30
2023-02-21T03:35:01.529Z,1.30
2023-02-21T03:37:37.459Z,1.70
2023-02-21T03:40:16.347Z,2.20
2023-02-21T03:42:48.846Z,3.00
2023-02-21T03:45:19.727Z,3.30
2023-02-21T03:48:00.443Z,2.80
2023-02-21T03:50:29.453Z,2.40
2023-02-21T03:52:58.300Z,2.80
2023-02-21T03:55:27.444Z,2.30
2023-02-21T03:57:56.694Z,2.40
2023-02-21T04:00:25.660Z,2.10
2023-02-21T04:02:56.073Z,2.90
2023-02-21T04:05:37.382Z,4.10
2023-02-21T04:08:06.450Z,6.20
2023-02-21T04:10:40.599Z,2.70
2023-02-21T04:13:12.751Z,3.90
2023-02-21T04:15:45.022Z,3.70
2023-02-21T04:18:14.766Z,4.00
2023-02-21T04:20:43.921Z,4.40
2023-02-21T04:23:21.296Z,4.60
2023-02-21T04:25:50.778Z,4.50
2023-02-21T04:28:55.687Z,5.70
2023-02-21T04:31:24.748Z,6.60
2023-02-21T04:34:05.810Z,7.80
2023-02-21T04:36:41.045Z,9.20
2023-02-21T04:39:10.052Z,4.80
2023-02-21T04:41:39.426Z,4.20
2023-02-21T04:44:08.944Z,3.40
2023-02-21T04:46:37.864Z,5.60
2023-02-21T04:49:14.021Z,3.90
2023-02-21T04:51:42.702Z,4.50
2023-02-21T04:54:13.887Z,3.20
2023-02-21T04:56:44.187Z,3.70
2023-02-21T04:59:13.191Z,4.00
2023-02-21T05:01:41.787Z,4.10
2023-02-21T05:04:11.394Z,4.30
2023-02-21T05:06:40.098Z,2.80
2023-02-21T05:09:08.612Z,3.40
2023-02-21T05:11:37.828Z,4.30
2023-02-21T05:14:06.483Z,4.10
2023-02-21T05:16:35.175Z,7.70
2023-02-21T05:19:04.584Z,4.80
2023-02-21T05:21:37.832Z,3.70
2023-02-21T05:24:07.680Z,5.50
2023-02-21T05:26:38.576Z,4.20
2023-02-21T05:29:07.426Z,4.00
2023-02-21T05:31:36.595Z,3.10
2023-02-21T05:34:05.305Z,3.40
2023-02-21T05:36:33.953Z,7.10
2023-02-21T05:39:04.774Z,5.70
2023-02-21T05:41:33.415Z,6.40
2023-02-21T05:44:03.002Z,4.30
2023-02-21T05:46:35.205Z,6.50
2023-02-21T05:49:05.732Z,5.90
2023-02-21T05:51:39.986Z,6.90
2023-02-21T05:54:10.599Z,6.70
2023-02-21T05:56:44.122Z,5.20
2023-02-21T05:59:14.781Z,5.60
2023-02-21T06:01:44.174Z,7.00
2023-02-21T06:04:13.212Z,6.00
2023-02-21T06:06:42.529Z,8.20
2023-02-21T06:09:11.886Z,5.50
2023-02-21T06:11:41.107Z,5.80
2023-02-21T06:14:18.268Z,6.00
2023-02-21T06:16:48.840Z,5.30
2023-02-21T06:19:18.451Z,6.30
2023-02-21T06:21:47.157Z,6.70
2023-02-21T06:24:17.653Z,5.40
2023-02-21T06:26:46.348Z,5.30
2023-02-21T06:29:15.055Z,6.40
2023-02-21T06:31:44.142Z,6.20
2023-02-21T06:34:13.084Z,7.10
2023-02-21T06:36:41.806Z,7.80
2023-02-21T06:39:11.313Z,7.50
2023-02-21T06:41:40.242Z,5.60
2023-02-21T06:44:08.938Z,6.80
2023-02-21T06:46:39.022Z,5.50
2023-02-21T06:49:08.103Z,7.50
2023-02-21T06:51:38.534Z,5.00
2023-02-21T06:54:10.770Z,5.20
2023-02-21T06:56:39.732Z,8.00
2023-02-21T06:59:09.097Z,8.20
2023-02-21T07:01:38.474Z,7.80
2023-02-21T07:04:07.171Z,6.60
2023-02-21T07:06:35.887Z,7.70
2023-02-21T07:09:05.165Z,7.20
2023-02-21T07:11:35.554Z,8.30
2023-02-21T07:14:05.843Z,9.90
2023-02-21T07:19:03.481Z,8.20
2023-02-21T07:21:32.494Z,5.90
2023-02-21T07:24:01.570Z,8.30
2023-02-21T07:26:30.306Z,9.50
2023-02-21T07:28:59.206Z,8.30
2023-02-21T07:31:28.159Z,5.20
2023-02-21T07:33:56.861Z,4.00
2023-02-21T07:36:25.521Z,6.60
2023-02-21T07:38:55.153Z,7.70
2023-02-21T07:41:23.673Z,7.10
2023-02-21T07:43:52.723Z,5.30
2023-02-21T07:46:26.108Z,9.20
2023-02-21T07:48:55.139Z,7.90
2023-02-21T07:51:30.018Z,6.20
2023-02-21T07:53:58.982Z,5.60
2023-02-21T07:56:27.899Z,4.10
2023-02-21T07:58:56.577Z,4.80
2023-02-21T08:01:27.281Z,4.00
2023-02-21T08:03:57.356Z,5.60
2023-02-21T08:06:26.037Z,4.60
2023-02-21T08:08:55.216Z,5.20
2023-02-21T08:11:24.623Z,6.20
2023-02-21T08:13:53.775Z,3.60
2023-02-21T08:16:22.834Z,4.90
2023-02-21T08:18:51.744Z,4.20
2023-02-21T08:21:20.569Z,6.40
2023-02-21T08:23:49.548Z,5.80
2023-02-21T08:26:18.779Z,4.80
2023-02-21T08:28:49.265Z,6.70
2023-02-21T08:31:18.387Z,15.20
2023-02-21T08:33:47.613Z,6.60
2023-02-21T08:36:16.277Z,7.00
2023-02-21T08:38:45.172Z,4.10
2023-02-21T08:41:14.504Z,7.90
2023-02-21T08:43:43.353Z,5.60
2023-02-21T08:46:12.262Z,6.50
2023-02-21T08:48:49.764Z,4.80
2023-02-21T08:51:20.470Z,11.00
2023-02-21T08:53:55.006Z,6.40
2023-02-21T08:56:25.252Z,6.20
2023-02-21T08:58:55.375Z,4.30
2023-02-21T09:01:32.250Z,3.60
2023-02-21T09:04:02.549Z,7.20
2023-02-21T09:07:01.806Z,3.70
2023-02-21T09:09:38.628Z,5.00
2023-02-21T09:12:08.990Z,7.90
2023-02-21T09:14:40.227Z,2.60
2023-02-21T09:17:11.307Z,6.60
2023-02-21T09:19:40.505Z,5.40
2023-02-21T09:22:10.328Z,4.50
2023-02-21T09:24:39.711Z,4.50
2023-02-21T09:27:08.609Z,2.90
2023-02-21T09:29:46.058Z,4.20
2023-02-21T09:32:15.698Z,4.70
2023-02-21T09:34:44.959Z,6.90
2023-02-21T09:37:13.620Z,4.50
2023-02-21T09:39:42.845Z,10.70
2023-02-21T09:42:19.891Z,7.90
2023-02-21T09:44:49.294Z,5.20
2023-02-21T09:47:39.206Z,7.10
2023-02-21T09:50:16.286Z,8.70
2023-02-21T09:52:45.953Z,12.10
2023-02-21T09:55:36.381Z,17.00
2023-02-21T09:58:16.632Z,7.80
2023-02-21T10:00:47.248Z,10.10
2023-02-21T10:03:31.931Z,7.30
2023-02-21T10:06:29.802Z,7.30
2023-02-21T10:09:07.011Z,6.00
2023-02-21T10:11:39.199Z,7.10
2023-02-21T10:14:15.907Z,7.20
2023-02-21T10:16:55.439Z,9.70
2023-02-21T10:19:39.315Z,10.10
2023-02-21T10:22:20.394Z,6.20
2023-02-21T10:24:50.630Z,8.60
2023-02-21T10:27:26.725Z,7.90
2023-02-21T10:30:02.113Z,7.10
2023-02-21T10:32:32.723Z,9.80
2023-02-21T10:35:01.606Z,18.20
2023-02-21T10:37:37.155Z,19.40
2023-02-21T10:40:44.803Z,21.70
2023-02-21T10:43:18.358Z,17.10
2023-02-21T10:46:09.593Z,10.70
2023-02-21T10:48:41.787Z,17.10
2023-02-21T10:51:14.689Z,23.10
2023-02-21T10:53:46.040Z,8.90
2023-02-21T10:56:20.863Z,9.10
2023-02-21T11:02:45.025Z,8.90
2023-02-21T11:05:24.479Z,12.10
2023-02-21T11:08:10.182Z,28.00
2023-02-21T11:10:43.695Z,15.10
2023-02-21T11:13:22.324Z,13.60
2023-02-21T11:16:11.104Z,27.60
2023-02-21T11:18:40.857Z,14.00
2023-02-21T11:21:20.418Z,8.70
2023-02-21T11:24:05.362Z,10.70
2023-02-21T11:26:52.695Z,12.20
2023-02-21T11:29:26.180Z,12.40
2023-02-21T11:31:55.906Z,10.60
2023-02-21T11:34:29.812Z,9.40
2023-02-21T11:37:04.402Z,11.40
2023-02-21T11:39:34.231Z,12.50
2023-02-21T11:42:07.354Z,13.70
2023-02-21T11:44:39.181Z,12.60
2023-02-21T11:47:29.779Z,12.30
2023-02-21T11:50:08.899Z,11.90
2023-02-21T11:53:01.133Z,8.00
2023-02-21T11:55:35.494Z,9.70
2023-02-21T11:58:30.215Z,8.70
2023-02-21T12:01:17.928Z,11.40
2023-02-21T12:04:10.268Z,16.30
2023-02-21T12:06:57.287Z,9.50
2023-02-21T12:09:48.181Z,11.60
2023-02-21T12:12:36.073Z,17.10
2023-02-21T12:15:10.973Z,9.10
2023-02-21T12:18:05.551Z,9.10
2023-02-21T12:21:01.298Z,12.60
2023-02-21T12:23:55.027Z,9.20
2023-02-21T12:26:46.193Z,14.00
2023-02-21T12:29:36.465Z,11.10
2023-02-21T12:32:11.888Z,9.40
2023-02-21T12:35:00.975Z,11.50
2023-02-21T12:37:56.323Z,11.30
2023-02-21T12:40:37.949Z,15.70
2023-02-21T12:43:38.190Z,14.00
2023-02-21T12:46:28.215Z,10.30
2023-02-21T12:49:12.422Z,11.80
2023-02-21T12:52:15.588Z,9.80
2023-02-21T12:55:03.647Z,7.50
2023-02-21T12:57:57.894Z,10.10
2023-02-21T13:00:37.275Z,11.30
2023-02-21T13:03:57.284Z,9.90
2023-02-21T13:06:36.145Z,10.90
2023-02-21T13:09:23.249Z,13.20
2023-02-21T13:12:01.746Z,14.50
2023-02-21T13:14:42.124Z,12.20
2023-02-21T13:17:16.918Z,10.10
2023-02-21T13:19:56.247Z,8.90
2023-02-21T13:23:21.699Z,15.20
2023-02-21T13:31:01.576Z,19.60
2023-02-21T13:33:44.975Z,16.10
2023-02-21T13:36:17.613Z,12.40
2023-02-21T13:38:58.496Z,10.50
2023-02-21T13:41:30.530Z,12.90
2023-02-21T13:44:01.333Z,18.00
2023-02-21T13:46:30.003Z,17.70
2023-02-21T13:49:51.699Z,14.10
2023-02-21T13:52:30.513Z,29.20
2023-02-21T13:55:23.295Z,21.40
2023-02-21T13:57:58.862Z,24.30
2023-02-21T14:00:30.998Z,19.70
2023-02-21T14:03:25.086Z,21.50
2023-02-21T14:05:57.193Z,14.70
2023-02-21T14:08:30.093Z,14.30
2023-02-21T14:11:06.522Z,12.80
2023-02-21T14:13:41.468Z,11.80
2023-02-21T14:16:10.527Z,14.60
2023-02-21T14:18:39.462Z,12.80
2023-02-21T14:21:27.264Z,10.10
2023-02-21T14:24:02.197Z,15.70
2023-02-21T14:26:41.907Z,21.30
2023-02-21T14:29:17.695Z,15.30
2023-02-21T14:31:50.997Z,9.20
2023-02-21T14:34:47.397Z,16.40
2023-02-21T14:37:37.543Z,23.60
2023-02-21T14:40:12.455Z,23.30
2023-02-21T14:43:05.526Z,40.10
2023-02-21T14:45:52.472Z,24.30
2023-02-21T14:48:27.460Z,32.50
2023-02-21T14:51:14.782Z,31.90
2023-02-21T14:53:43.903Z,23.50
2023-02-21T14:56:51.544Z,20.90
2023-02-21T14:59:27.704Z,14.40
2023-02-21T15:02:34.634Z,15.80
2023-02-21T15:05:20.659Z,20.80
2023-02-21T15:08:17.486Z,20.70
2023-02-21T15:10:50.521Z,12.80
2023-02-21T15:13:30.569Z,11.70
2023-02-21T15:16:05.759Z,9.80
2023-02-21T15:18:36.911Z,24.60
2023-02-21T15:21:11.421Z,15.70
2023-02-21T15:23:43.193Z,14.60
2023-02-21T15:26:24.960Z,21.60
2023-02-21T15:29:16.941Z,27.80
2023-02-21T15:31:54.639Z,16.30
2023-02-21T15:34:47.622Z,14.80
2023-02-21T15:37:21.572Z,10.70
2023-02-21T15:39:55.697Z,18.70
2023-02-21T15:42:27.028Z,27.70
2023-02-21T15:45:11.604Z,19.40
2023-02-21T15:47:40.819Z,37.70
2023-02-21T15:50:13.296Z,22.40
2023-02-21T15:52:49.455Z,27.30
2023-02-21T15:55:23.165Z,34.10
2023-02-21T15:58:07.631Z,28.50
2023-02-21T16:00:39.103Z,29.40
2023-02-21T16:03:38.439Z,17.90
2023-02-21T16:06:12.139Z,25.20
2023-02-21T16:09:04.706Z,22.70
2023-02-21T16:11:53.351Z,14.50
2023-02-21T16:15:04.290Z,15.70
2023-02-21T16:17:37.400Z,21.00
2023-02-21T16:20:07.152Z,18.10
2023-02-21T16:22:59.635Z,14.70
2023-02-21T16:25:30.412Z,22.70
2023-02-21T16:28:00.731Z,53.00
2023-02-21T16:33:03.861Z,27.20
2023-02-21T16:35:33.973Z,39.70
2023-02-21T16:38:03.826Z,39.20
2023-02-21T16:40:35.164Z,30.30
2023-02-21T16:43:05.384Z,31.10
2023-02-21T16:45:37.257Z,27.40
2023-02-21T16:48:07.445Z,31.90
2023-02-21T16:50:40.287Z,27.90
2023-02-21T16:53:15.591Z,23.20
2023-02-21T16:55:45.573Z,26.90
2023-02-21T16:58:26.686Z,27.80
2023-02-21T17:01:04.128Z,16.30
2023-02-21T17:03:33.335Z,17.50
2023-02-21T17:06:24.176Z,30.10
2023-02-21T17:08:53.801Z,22.80
2023-02-21T17:11:22.796Z,24.90
2023-02-21T17:13:52.265Z,19.40
2023-02-21T17:16:21.856Z,23.80
2023-02-21T17:18:50.682Z,23.30
2023-02-21T17:21:19.451Z,13.30
2023-02-21T17:23:48.820Z,12.40
2023-02-21T17:26:18.211Z,12.60
2023-02-21T17:28:47.089Z,11.90
2023-02-21T17:31:19.187Z,12.40
2023-02-21T17:33:49.127Z,15.50
2023-02-21T17:36:20.081Z,18.60
2023-02-21T17:38:49.615Z,17.30
2023-02-21T17:41:19.761Z,20.30
2023-02-21T17:43:48.929Z,16.40
2023-02-21T17:46:20.019Z,14.10
2023-02-21T17:48:49.022Z,15.70
2023-02-21T17:51:26.209Z,24.90
2023-02-21T17:53:55.300Z,34.10
2023-02-21T17:56:25.037Z,47.90
2023-02-21T17:58:55.449Z,21.20
2023-02-21T18:01:25.755Z,18.40
2023-02-21T18:06:54.558Z,20.50
2023-02-21T18:10:01.300Z,11.70
2023-02-21T18:12:53.022Z,18.30
2023-02-21T18:15:43.033Z,15.50
2023-02-21T18:18:34.128Z,17.10
2023-02-21T18:21:20.150Z,15.50
2023-02-21T18:24:14.240Z,31.40
2023-02-21T18:27:13.114Z,65.90
2023-02-21T18:30:06.790Z,29.90
2023-02-21T18:32:56.598Z,46.60
2023-02-21T18:35:47.252Z,13.20
2023-02-21T18:38:36.206Z,9.70
2023-02-21T18:41:25.392Z,7.80
2023-02-21T18:44:00.822Z,9.00
2023-02-21T18:46:31.198Z,14.70
2023-02-21T18:49:00.573Z,12.50
2023-02-21T18:51:29.199Z,15.10
2023-02-21T18:53:58.165Z,12.10
2023-02-21T18:56:27.218Z,13.10
2023-02-21T18:58:56.159Z,20.80
2023-02-21T19:01:27.657Z,15.50
2023-02-21T19:03:57.160Z,10.80
2023-02-21T19:06:25.899Z,10.90
2023-02-21T19:08:54.729Z,8.40
2023-02-21T19:11:24.086Z,6.80
2023-02-21T19:13:52.771Z,7.30
2023-02-21T19:16:23.045Z,11.80
2023-02-21T19:18:59.226Z,10.60
2023-02-21T19:21:28.346Z,11.40
2023-02-21T19:23:58.070Z,15.50
2023-02-21T19:26:31.084Z,26.50
2023-02-21T19:29:00.441Z,20.20
2023-02-21T19:31:29.489Z,27.20
2023-02-21T19:33:58.634Z,23.90
2023-02-21T19:36:27.859Z,21.00
2023-02-21T19:38:56.718Z,16.70
2023-02-21T19:41:26.451Z,19.20
2023-02-21T19:43:56.033Z,17.50
2023-02-21T19:46:27.800Z,23.10
2023-02-21T19:48:57.414Z,37.80
2023-02-21T19:51:28.755Z,39.90
2023-02-21T19:53:59.363Z,48.50
2023-02-21T19:56:28.600Z,20.70
2023-02-21T19:58:58.712Z,23.00
2023-02-21T20:04:02.709Z,19.50
2023-02-21T20:06:35.667Z,18.40
2023-02-21T20:09:08.502Z,20.70
2023-02-21T20:11:40.505Z,23.00
2023-02-21T20:14:11.804Z,21.80
2023-02-21T20:16:42.613Z,16.30
2023-02-21T20:19:12.769Z,13.30
2023-02-21T20:24:11.249Z,14.40
2023-02-21T20:26:41.113Z,13.80
2023-02-21T20:29:10.170Z,15.40
2023-02-21T20:31:39.780Z,14.00
2023-02-21T20:34:10.102Z,20.90
2023-02-21T20:36:42.726Z,17.20
2023-02-21T20:39:29.146Z,16.30
2023-02-21T20:42:01.203Z,14.10
2023-02-21T20:44:35.422Z,13.90
2023-02-21T20:47:06.213Z,14.30
2023-02-21T20:49:38.408Z,17.20
2023-02-21T20:52:07.397Z,15.10
2023-02-21T20:54:36.991Z,15.30
2023-02-21T20:57:05.792Z,13.90
2023-02-21T20:59:40.033Z,18.20
2023-02-21T21:02:09.658Z,15.80
2023-02-21T21:04:44.442Z,18.70
2023-02-21T21:07:20.242Z,15.00
2023-02-21T21:09:50.490Z,12.80
2023-02-21T21:12:21.444Z,16.30
2023-02-21T21:14:53.855Z,17.00
2023-02-21T21:17:48.422Z,15.80
2023-02-21T21:20:20.776Z,14.80
2023-02-21T21:22:50.298Z,12.20
2023-02-21T21:25:19.650Z,15.80
2023-02-21T21:27:49.514Z,13.10
2023-02-21T21:30:23.005Z,17.30
2023-02-21T21:32:52.337Z,18.00
2023-02-21T21:35:21.144Z,15.70
2023-02-21T21:37:50.193Z,14.10
2023-02-21T21:40:22.422Z,18.60
2023-02-21T21:42:52.585Z,13.40
2023-02-21T21:45:25.351Z,17.70
2023-02-21T21:48:01.616Z,23.50
2023-02-21T21:50:30.865Z,24.20
2023-02-21T21:52:59.450Z,24.30
2023-02-21T21:55:30.504Z,21.10
2023-02-21T21:58:00.323Z,13.10
2023-02-21T22:00:30.843Z,19.70
2023-02-21T22:03:02.503Z,17.40
2023-02-21T22:05:37.076Z,17.90
2023-02-21T22:08:06.173Z,14.10
2023-02-21T22:10:34.898Z,14.60
2023-02-21T22:13:13.935Z,16.20
2023-02-21T22:15:44.398Z,17.30
2023-02-21T22:18:18.729Z,17.40
2023-02-21T22:20:50.367Z,17.80
2023-02-21T22:23:24.816Z,18.10
2023-02-21T22:25:54.261Z,18.30
2023-02-21T22:28:23.090Z,17.80
2023-02-21T22:30:52.654Z,14.80
2023-02-21T22:33:22.893Z,18.10
2023-02-21T22:35:51.538Z,24.10
2023-02-21T22:38:20.288Z,21.50
2023-02-21T22:40:49.599Z,21.10
2023-02-21T22:43:20.371Z,19.10
2023-02-21T22:45:50.389Z,16.60
2023-02-21T22:50:50.185Z,24.50
2023-02-21T22:53:20.170Z,18.80
2023-02-21T22:55:52.120Z,19.40
2023-02-21T22:58:22.286Z,19.70
2023-02-21T23:00:52.832Z,17.50
2023-02-21T23:03:21.694Z,19.90
2023-02-21T23:05:51.870Z,17.60
2023-02-21T23:08:23.810Z,12.30
2023-02-21T23:10:52.738Z,16.90
2023-02-21T23:13:23.928Z,19.60
2023-02-21T23:15:55.959Z,16.50
2023-02-21T23:18:26.437Z,11.10
2023-02-21T23:23:28.575Z,17.50
2023-02-21T23:26:00.054Z,15.90
2023-02-21T23:28:30.807Z,21.40
2023-02-21T23:31:00.651Z,17.70
2023-02-21T23:36:00.145Z,11.70
2023-02-21T23:38:30.501Z,18.40
2023-02-21T23:41:02.240Z,15.10
2023-02-21T23:43:36.285Z,19.90
2023-02-21T23:46:07.550Z,20.70
2023-02-21T23:48:37.926Z,16.20
2023-02-21T23:51:08.640Z,28.80
2023-02-21T23:53:38.232Z,19.70
2023-02-21T23:56:13.722Z,19.80
2023-02-21T23:58:46.104Z,18.10
